createdAt,value
2019-01-23T00:00:55.448Z,36.33
2019-01-23T00:03:21.376Z,36.38
2019-01-23T00:05:50.706Z,36.38
2019-01-23T00:08:16.733Z,36.33
2019-01-23T00:10:42.672Z,36.26
2019-01-23T00:13:08.917Z,36.22
2019-01-23T00:15:34.827Z,36.32
2019-01-23T00:18:00.752Z,36.22
2019-01-23T00:20:29.673Z,36.34
2019-01-23T00:22:58.574Z,36.51
2019-01-23T00:25:24.921Z,36.63
2019-01-23T00:27:52.830Z,36.42
2019-01-23T00:30:18.725Z,36.25
2019-01-23T00:32:44.624Z,36.24
2019-01-23T00:35:10.529Z,36.30
2019-01-23T00:37:39.468Z,36.28
2019-01-23T00:40:10.331Z,36.32
2019-01-23T00:42:36.633Z,36.45
2019-01-23T00:45:07.083Z,36.23
2019-01-23T00:47:36.154Z,36.38
2019-01-23T00:50:06.370Z,36.30
2019-01-23T00:52:35.130Z,36.28
2019-01-23T00:55:11.689Z,36.60
2019-01-23T00:57:40.397Z,36.33
2019-01-23T01:00:08.601Z,36.41
2019-01-23T01:02:37.284Z,36.51
2019-01-23T01:05:03.782Z,36.38
2019-01-23T01:07:30.112Z,36.41
2019-01-23T01:09:56.349Z,36.41
2019-01-23T01:12:22.295Z,36.68
2019-01-23T01:14:53.855Z,36.53
2019-01-23T01:17:19.751Z,36.43
2019-01-23T01:19:45.700Z,36.43
2019-01-23T01:22:14.569Z,36.41
2019-01-23T01:24:40.518Z,36.43
2019-01-23T01:27:06.412Z,36.56
2019-01-23T01:29:35.334Z,36.53
2019-01-23T01:32:01.243Z,36.45
2019-01-23T01:34:27.133Z,36.48
2019-01-23T01:36:53.038Z,36.57
2019-01-23T01:39:21.686Z,36.47
2019-01-23T01:41:47.588Z,36.67
2019-01-23T01:44:13.483Z,36.63
2019-01-23T01:46:39.380Z,36.57
2019-01-23T01:49:05.294Z,36.36
2019-01-23T01:51:31.219Z,36.41
2019-01-23T01:53:57.145Z,36.47
2019-01-23T01:56:23.056Z,36.35
2019-01-23T01:58:48.944Z,36.37
2019-01-23T02:01:14.847Z,36.42
2019-01-23T02:03:40.743Z,36.47
2019-01-23T02:06:06.652Z,36.35
2019-01-23T02:08:32.552Z,36.33
2019-01-23T02:10:58.491Z,36.25
2019-01-23T02:13:27.422Z,36.25
2019-01-23T02:15:53.378Z,36.28
2019-01-23T02:18:19.600Z,36.26
2019-01-23T02:20:48.423Z,36.23
2019-01-23T02:23:14.308Z,36.20
2019-01-23T02:25:40.220Z,36.16
2019-01-23T02:28:06.331Z,36.12
2019-01-23T02:30:32.208Z,36.09
2019-01-23T02:32:58.122Z,36.33
2019-01-23T02:35:24.080Z,36.33
2019-01-23T02:37:50.348Z,36.16
2019-01-23T02:40:20.040Z,36.06
2019-01-23T02:42:48.995Z,36.44
2019-01-23T02:45:14.958Z,36.17
2019-01-23T02:47:40.892Z,36.21
2019-01-23T02:50:08.116Z,36.11
2019-01-23T02:52:37.000Z,36.25
2019-01-23T02:55:04.530Z,36.27
2019-01-23T02:57:30.490Z,36.18
2019-01-23T02:59:59.456Z,36.21
2019-01-23T03:02:25.353Z,36.12
2019-01-23T03:04:53.566Z,36.15
2019-01-23T03:07:22.287Z,36.23
2019-01-23T03:09:48.954Z,36.37
2019-01-23T03:12:15.223Z,36.29
2019-01-23T03:14:41.170Z,36.21
2019-01-23T03:17:10.079Z,36.23
2019-01-23T03:19:39.211Z,36.16
2019-01-23T03:22:08.197Z,36.20
2019-01-23T03:24:37.294Z,36.66
2019-01-23T03:27:06.252Z,36.61
2019-01-23T03:29:32.209Z,36.30
2019-01-23T03:31:58.103Z,36.29
2019-01-23T03:34:24.008Z,36.30
2019-01-23T03:36:49.910Z,36.22
2019-01-23T03:39:15.800Z,36.21
2019-01-23T03:41:41.706Z,36.38
2019-01-23T03:44:10.556Z,36.18
2019-01-23T03:46:36.811Z,36.02
2019-01-23T03:49:05.591Z,36.25
2019-01-23T03:51:31.932Z,36.18
2019-01-23T03:54:00.617Z,36.11
2019-01-23T03:56:29.539Z,36.02
2019-01-23T03:58:58.537Z,36.11
2019-01-23T04:01:27.489Z,36.05
2019-01-23T04:03:53.396Z,35.97
2019-01-23T04:06:19.299Z,35.94
2019-01-23T04:08:45.430Z,36.00
2019-01-23T04:11:11.280Z,35.97
2019-01-23T04:13:37.630Z,35.90
2019-01-23T04:16:03.883Z,36.02
2019-01-23T04:18:29.782Z,35.98
2019-01-23T04:20:55.688Z,36.17
2019-01-23T04:23:21.688Z,36.02
2019-01-23T04:25:48.143Z,35.89
2019-01-23T04:28:14.389Z,35.91
2019-01-23T04:30:40.286Z,35.95
2019-01-23T04:33:06.229Z,36.04
2019-01-23T04:35:35.130Z,35.87
2019-01-23T04:38:01.039Z,35.80
2019-01-23T04:40:26.947Z,35.87
2019-01-23T04:42:52.838Z,35.78
2019-01-23T04:45:19.439Z,35.79
2019-01-23T04:47:45.396Z,35.83
2019-01-23T04:50:12.331Z,35.91
2019-01-23T04:52:58.649Z,35.89
2019-01-23T04:55:24.555Z,35.84
2019-01-23T04:57:50.460Z,35.77
2019-01-23T05:00:18.313Z,36.03
2019-01-23T05:02:47.488Z,35.85
2019-01-23T05:05:16.758Z,35.71
2019-01-23T05:07:42.665Z,35.61
2019-01-23T05:10:08.964Z,35.74
2019-01-23T05:12:34.877Z,35.54
2019-01-23T05:15:04.760Z,35.77
2019-01-23T05:17:33.671Z,35.59
2019-01-23T05:19:59.580Z,35.61
2019-01-23T05:22:25.524Z,35.69
2019-01-23T05:24:57.618Z,35.75
2019-01-23T05:27:23.572Z,35.63
2019-01-23T05:29:55.072Z,35.63
2019-01-23T05:32:20.419Z,35.57
2019-01-23T05:34:49.579Z,35.61
2019-01-23T05:37:15.516Z,35.64
2019-01-23T05:39:41.421Z,35.66
2019-01-23T05:42:07.327Z,36.14
2019-01-23T05:44:33.269Z,35.68
2019-01-23T05:46:59.178Z,35.93
2019-01-23T05:49:25.070Z,35.85
2019-01-23T05:51:53.001Z,35.56
2019-01-23T05:54:18.902Z,36.33
2019-01-23T05:56:45.312Z,35.67
2019-01-23T05:59:11.221Z,35.53
2019-01-23T06:01:37.163Z,35.48
2019-01-23T06:04:06.085Z,35.46
2019-01-23T06:06:31.993Z,35.62
2019-01-23T06:08:57.897Z,35.72
2019-01-23T06:11:23.801Z,35.54
2019-01-23T06:13:49.715Z,35.56
2019-01-23T06:16:15.592Z,35.61
2019-01-23T06:18:44.241Z,35.58
2019-01-23T06:21:10.180Z,35.54
2019-01-23T06:23:39.301Z,35.58
2019-01-23T06:26:05.226Z,35.72
2019-01-23T06:28:33.872Z,35.68
2019-01-23T06:31:02.930Z,35.89
2019-01-23T06:33:28.888Z,35.56
2019-01-23T06:35:57.848Z,35.63
2019-01-23T06:38:26.831Z,35.70
2019-01-23T06:40:52.795Z,35.66
2019-01-23T06:43:18.694Z,35.66
2019-01-23T06:45:44.940Z,35.68
2019-01-23T06:48:10.849Z,35.82
2019-01-23T06:50:39.931Z,35.72
2019-01-23T06:53:14.034Z,35.62
2019-01-23T06:55:39.396Z,35.57
2019-01-23T06:58:05.358Z,35.69
2019-01-23T07:00:31.257Z,35.62
2019-01-23T07:03:00.536Z,35.74
2019-01-23T07:05:26.797Z,35.76
2019-01-23T07:07:55.482Z,35.76
2019-01-23T07:10:24.428Z,35.71
2019-01-23T07:12:51.638Z,35.74
2019-01-23T07:15:17.879Z,35.68
2019-01-23T07:17:43.785Z,35.65
2019-01-23T07:20:14.585Z,35.71
2019-01-23T07:22:43.295Z,35.63
2019-01-23T07:25:09.295Z,35.59
2019-01-23T07:27:35.242Z,35.60
2019-01-23T07:30:01.181Z,35.56
2019-01-23T07:32:27.452Z,35.50
2019-01-23T07:34:53.387Z,35.63
2019-01-23T07:37:19.410Z,35.59
2019-01-23T07:39:45.304Z,35.68
2019-01-23T07:42:13.983Z,35.56
2019-01-23T07:44:39.882Z,35.74
2019-01-23T07:47:05.828Z,35.66
2019-01-23T07:49:34.753Z,35.67
2019-01-23T07:52:03.914Z,35.61
2019-01-23T07:54:29.801Z,35.69
2019-01-23T07:56:58.754Z,35.72
2019-01-23T07:59:27.487Z,35.65
2019-01-23T08:01:53.377Z,35.66
2019-01-23T08:04:22.310Z,35.71
2019-01-23T08:06:48.226Z,35.71
2019-01-23T08:09:17.217Z,35.71
2019-01-23T08:11:43.125Z,35.74
2019-01-23T08:14:12.250Z,35.70
2019-01-23T08:16:38.154Z,35.82
2019-01-23T08:19:04.041Z,35.69
2019-01-23T08:21:29.989Z,35.74
2019-01-23T08:23:55.966Z,35.82
2019-01-23T08:26:21.888Z,35.74
2019-01-23T08:28:51.938Z,35.79
2019-01-23T08:31:22.031Z,35.78
2019-01-23T08:33:53.242Z,35.91
2019-01-23T08:36:19.142Z,35.79
2019-01-23T08:38:45.032Z,35.80
2019-01-23T08:41:10.930Z,36.12
2019-01-23T08:43:36.827Z,35.80
2019-01-23T08:46:02.830Z,35.87
2019-01-23T08:48:28.780Z,35.84
2019-01-23T08:50:54.662Z,35.90
2019-01-23T08:53:21.880Z,35.92
2019-01-23T08:55:53.498Z,35.94
2019-01-23T08:58:15.600Z,35.87
2019-01-23T09:00:45.761Z,35.84
2019-01-23T09:03:09.221Z,35.98
2019-01-23T09:05:35.124Z,35.94
2019-01-23T09:08:01.051Z,35.87
2019-01-23T09:10:30.024Z,35.83
2019-01-23T09:12:56.662Z,36.20
2019-01-23T09:15:22.600Z,35.89
2019-01-23T09:17:54.707Z,35.92
2019-01-23T09:20:23.897Z,35.92
2019-01-23T09:22:49.790Z,35.96
2019-01-23T09:25:19.750Z,35.93
2019-01-23T09:27:48.708Z,35.91
2019-01-23T09:30:19.559Z,35.84
2019-01-23T09:33:03.904Z,35.81
2019-01-23T09:35:37.519Z,36.00
2019-01-23T09:38:08.367Z,35.76
2019-01-23T09:40:36.162Z,35.89
2019-01-23T09:43:10.028Z,35.80
2019-01-23T09:45:56.009Z,35.95
2019-01-23T09:48:26.821Z,35.90
2019-01-23T09:51:11.244Z,35.89
2019-01-23T09:53:39.047Z,35.82
2019-01-23T09:56:05.092Z,35.69
2019-01-23T09:58:30.985Z,35.74
2019-01-23T10:00:59.841Z,35.71
2019-01-23T10:03:24.580Z,35.67
2019-01-23T10:05:50.460Z,35.76
2019-01-23T10:08:17.346Z,35.62
2019-01-23T10:10:43.240Z,36.16
2019-01-23T10:13:09.146Z,35.93
2019-01-23T10:15:36.652Z,35.87
2019-01-23T10:18:05.565Z,35.76
2019-01-23T10:20:31.503Z,35.79
2019-01-23T10:22:57.385Z,35.73
2019-01-23T10:25:26.306Z,35.64
2019-01-23T10:27:55.237Z,35.82
2019-01-23T10:30:24.353Z,35.90
2019-01-23T10:32:53.296Z,35.62
2019-01-23T10:35:22.312Z,35.67
2019-01-23T10:37:54.537Z,35.76
2019-01-23T10:40:23.436Z,35.76
2019-01-23T10:42:52.605Z,35.80
2019-01-23T10:45:21.554Z,35.69
2019-01-23T10:47:56.003Z,36.47
2019-01-23T10:50:21.666Z,36.27
2019-01-23T10:52:47.548Z,35.92
2019-01-23T10:55:13.450Z,35.48
2019-01-23T10:57:42.553Z,35.50
2019-01-23T11:00:13.037Z,35.65
2019-01-23T11:02:38.978Z,35.80
2019-01-23T11:05:06.468Z,35.74
2019-01-23T11:07:32.673Z,35.76
2019-01-23T11:09:58.559Z,35.67
2019-01-23T11:12:24.536Z,35.48
2019-01-23T11:14:53.250Z,35.69
2019-01-23T11:17:19.144Z,35.51
2019-01-23T11:19:47.810Z,35.70
2019-01-23T11:22:13.707Z,35.89
2019-01-23T11:24:39.596Z,35.61
2019-01-23T11:27:05.531Z,35.87
2019-01-23T11:29:34.443Z,35.40
2019-01-23T11:32:03.429Z,35.96
2019-01-23T11:34:32.359Z,35.67
2019-01-23T11:37:01.722Z,35.46
2019-01-23T11:39:30.386Z,35.34
2019-01-23T11:41:56.287Z,35.58
2019-01-23T11:44:22.245Z,35.47
2019-01-23T11:46:48.147Z,35.58
2019-01-23T11:49:14.040Z,35.60
2019-01-23T11:51:40.322Z,35.56
2019-01-23T11:54:09.344Z,35.61
2019-01-23T11:56:35.248Z,35.44
2019-01-23T11:59:01.147Z,35.46
2019-01-23T12:01:27.884Z,35.70
2019-01-23T12:03:54.231Z,35.31
2019-01-23T12:06:20.119Z,35.26
2019-01-23T12:08:46.325Z,35.33
2019-01-23T12:11:12.219Z,35.51
2019-01-23T12:13:38.473Z,35.61
2019-01-23T12:16:07.699Z,35.34
2019-01-23T12:18:33.585Z,35.28
2019-01-23T12:20:59.489Z,35.47
2019-01-23T12:23:25.383Z,35.22
2019-01-23T12:25:53.529Z,35.35
2019-01-23T12:28:19.438Z,35.38
2019-01-23T12:30:48.525Z,35.40
2019-01-23T12:33:14.582Z,35.56
2019-01-23T12:35:40.503Z,35.51
2019-01-23T12:38:06.713Z,35.69
2019-01-23T12:40:32.590Z,35.66
2019-01-23T12:42:58.636Z,35.43
2019-01-23T12:45:25.840Z,35.61
2019-01-23T12:47:54.828Z,35.46
2019-01-23T12:50:25.697Z,35.20
2019-01-23T12:52:51.707Z,35.32
2019-01-23T12:55:17.811Z,35.38
2019-01-23T12:57:43.705Z,36.35
2019-01-23T13:00:14.806Z,35.13
2019-01-23T13:02:44.101Z,35.52
2019-01-23T13:05:10.834Z,35.35
2019-01-23T13:07:36.789Z,35.75
2019-01-23T13:10:04.593Z,35.25
2019-01-23T13:12:30.488Z,35.78
2019-01-23T13:14:56.836Z,35.56
2019-01-23T13:17:25.821Z,35.56
2019-01-23T13:19:54.701Z,35.29
2019-01-23T13:22:21.353Z,35.17
2019-01-23T13:24:50.454Z,35.22
2019-01-23T13:27:19.389Z,35.99
2019-01-23T13:29:48.591Z,35.35
2019-01-23T13:32:18.251Z,35.32
2019-01-23T13:34:46.965Z,35.46
2019-01-23T13:37:16.284Z,35.24
2019-01-23T13:39:45.137Z,35.96
2019-01-23T13:42:14.122Z,35.69
2019-01-23T13:44:40.026Z,35.41
2019-01-23T13:47:08.958Z,35.31
2019-01-23T13:49:34.856Z,35.47
2019-01-23T13:52:01.160Z,35.51
2019-01-23T13:54:27.065Z,35.41
2019-01-23T13:56:56.113Z,35.21
2019-01-23T13:59:25.450Z,35.06
2019-01-23T14:01:56.394Z,35.79
2019-01-23T14:04:21.839Z,35.35
2019-01-23T14:06:47.792Z,35.35
2019-01-23T14:09:13.684Z,35.53
2019-01-23T14:11:39.630Z,35.32
2019-01-23T14:14:05.619Z,35.20
2019-01-23T14:16:34.518Z,35.29
2019-01-23T14:19:00.406Z,34.96
2019-01-23T14:21:26.293Z,35.19
2019-01-23T14:23:54.982Z,34.99
2019-01-23T14:26:23.397Z,34.92
2019-01-23T14:28:49.293Z,35.38
2019-01-23T14:31:15.201Z,35.25
2019-01-23T14:33:41.096Z,35.27
2019-01-23T14:36:06.975Z,35.19
2019-01-23T14:38:32.876Z,34.94
2019-01-23T14:40:58.809Z,34.94
2019-01-23T14:43:24.704Z,34.71
2019-01-23T14:45:52.475Z,34.89
2019-01-23T14:48:18.324Z,34.89
2019-01-23T14:50:44.539Z,34.90
2019-01-23T14:53:10.451Z,34.80
2019-01-23T14:55:36.370Z,34.73
2019-01-23T14:58:02.605Z,34.85
2019-01-23T15:00:36.227Z,35.02
2019-01-23T15:03:02.015Z,34.92
2019-01-23T15:05:27.952Z,34.89
2019-01-23T15:07:53.850Z,35.19
2019-01-23T15:10:23.790Z,34.99
2019-01-23T15:12:53.105Z,34.82
2019-01-23T15:15:19.067Z,34.80
2019-01-23T15:17:47.886Z,34.76
2019-01-23T15:20:18.035Z,34.76
2019-01-23T15:22:47.013Z,34.84
2019-01-23T15:25:15.710Z,34.76
2019-01-23T15:27:44.735Z,35.17
2019-01-23T15:30:15.384Z,34.89
2019-01-23T15:32:44.409Z,34.99
2019-01-23T15:35:10.427Z,34.97
2019-01-23T15:37:39.545Z,35.04
2019-01-23T15:40:10.266Z,34.84
2019-01-23T15:42:36.255Z,34.87
2019-01-23T15:45:06.867Z,34.97
2019-01-23T15:47:32.766Z,34.99
2019-01-23T15:50:01.452Z,35.17
2019-01-23T15:52:27.397Z,35.03
2019-01-23T15:54:56.078Z,34.94
2019-01-23T15:57:25.012Z,34.94
2019-01-23T15:59:53.714Z,34.99
2019-01-23T16:02:24.240Z,34.98
2019-01-23T16:04:47.390Z,35.21
2019-01-23T16:07:16.110Z,34.92
2019-01-23T16:09:45.024Z,35.04
2019-01-23T16:12:14.301Z,34.97
2019-01-23T16:14:41.003Z,35.00
2019-01-23T16:17:06.900Z,35.20
2019-01-23T16:19:36.215Z,35.35
2019-01-23T16:22:02.121Z,35.11
2019-01-23T16:24:31.087Z,35.28
2019-01-23T16:26:57.449Z,34.97
2019-01-23T16:29:26.977Z,35.20
2019-01-23T16:31:55.610Z,34.92
2019-01-23T16:34:24.784Z,35.30
2019-01-23T16:36:53.720Z,35.25
2019-01-23T16:39:19.663Z,35.09
2019-01-23T16:41:48.953Z,35.13
2019-01-23T16:44:17.739Z,35.19
2019-01-23T16:46:47.090Z,34.99
2019-01-23T16:49:16.428Z,35.25
2019-01-23T16:51:51.168Z,35.53
2019-01-23T16:54:12.801Z,35.32
2019-01-23T16:56:38.691Z,34.89
2019-01-23T16:59:07.732Z,35.15
2019-01-23T17:01:33.651Z,35.45
2019-01-23T17:04:02.316Z,35.20
2019-01-23T17:06:28.232Z,35.20
2019-01-23T17:08:54.191Z,35.46
2019-01-23T17:11:20.170Z,35.28
2019-01-23T17:13:49.254Z,35.16
2019-01-23T17:16:15.208Z,35.04
2019-01-23T17:18:41.109Z,35.16
2019-01-23T17:21:07.006Z,35.28
2019-01-23T17:23:33.214Z,34.87
2019-01-23T17:25:59.109Z,35.10
2019-01-23T17:28:25.288Z,34.96
2019-01-23T17:30:53.101Z,34.97
2019-01-23T17:33:21.809Z,34.91
2019-01-23T17:35:47.700Z,34.90
2019-01-23T17:38:16.738Z,34.89
2019-01-23T17:40:46.192Z,34.92
2019-01-23T17:43:13.181Z,34.80
2019-01-23T17:45:39.400Z,34.79
2019-01-23T17:48:06.833Z,35.07
2019-01-23T17:50:35.821Z,34.77
2019-01-23T17:53:01.749Z,34.73
2019-01-23T17:55:32.991Z,35.07
2019-01-23T17:58:01.800Z,34.88
2019-01-23T18:00:30.285Z,34.74
2019-01-23T18:02:59.370Z,34.77
2019-01-23T18:05:28.319Z,35.02
2019-01-23T18:07:55.435Z,34.82
2019-01-23T18:10:27.217Z,35.05
2019-01-23T18:12:56.196Z,34.79
2019-01-23T18:15:30.052Z,35.15
2019-01-23T18:17:55.997Z,35.05
2019-01-23T18:20:26.249Z,35.07
2019-01-23T18:22:52.472Z,34.88
2019-01-23T18:25:18.733Z,35.04
2019-01-23T18:27:44.868Z,34.91
2019-01-23T18:30:22.323Z,35.19
2019-01-23T18:32:49.120Z,35.12
2019-01-23T18:35:32.108Z,34.99
2019-01-23T18:38:00.050Z,35.51
2019-01-23T18:40:33.800Z,34.99
2019-01-23T18:43:20.153Z,34.77
2019-01-23T18:45:47.966Z,35.07
2019-01-23T18:48:15.801Z,35.50
2019-01-23T18:50:46.407Z,34.79
2019-01-23T18:53:12.304Z,35.38
2019-01-23T18:55:41.026Z,35.17
2019-01-23T18:58:06.934Z,35.09
2019-01-23T19:00:32.832Z,35.24
2019-01-23T19:02:58.735Z,35.06
2019-01-23T19:05:24.641Z,35.33
2019-01-23T19:07:51.925Z,35.30
2019-01-23T19:10:17.851Z,35.35
2019-01-23T19:12:43.761Z,35.20
2019-01-23T19:15:15.007Z,35.32
2019-01-23T19:17:43.771Z,35.20
2019-01-23T19:20:14.075Z,35.66
2019-01-23T19:22:39.989Z,35.46
2019-01-23T19:25:07.089Z,35.15
2019-01-23T19:27:33.012Z,34.98
2019-01-23T19:29:58.904Z,35.48
2019-01-23T19:32:27.839Z,35.12
2019-01-23T19:34:56.775Z,35.28
2019-01-23T19:37:22.689Z,35.22
2019-01-23T19:39:51.767Z,35.34
2019-01-23T19:42:17.756Z,35.69
2019-01-23T19:44:44.669Z,35.19
2019-01-23T19:47:10.668Z,35.24
2019-01-23T19:49:36.633Z,35.31
2019-01-23T19:52:02.514Z,35.25
2019-01-23T19:54:28.407Z,35.30
2019-01-23T19:56:54.318Z,35.28
2019-01-23T19:59:20.233Z,35.31
2019-01-23T20:01:48.958Z,35.32
2019-01-23T20:04:18.016Z,35.74
2019-01-23T20:06:44.305Z,35.31
2019-01-23T20:09:10.241Z,35.30
2019-01-23T20:11:36.135Z,35.47
2019-01-23T20:14:02.038Z,35.21
2019-01-23T20:16:27.935Z,35.56
2019-01-23T20:18:54.244Z,35.63
2019-01-23T20:21:20.183Z,35.40
2019-01-23T20:23:49.289Z,35.93
2019-01-23T20:26:15.195Z,35.48
2019-01-23T20:28:44.559Z,35.43
2019-01-23T20:31:10.650Z,35.48
2019-01-23T20:33:36.652Z,35.43
2019-01-23T20:36:03.044Z,35.58
2019-01-23T20:38:31.957Z,35.63
2019-01-23T20:40:57.957Z,35.50
2019-01-23T20:43:23.865Z,35.44
2019-01-23T20:45:49.817Z,35.55
2019-01-23T20:48:15.712Z,35.49
2019-01-23T20:50:42.025Z,35.50
2019-01-23T20:53:07.965Z,36.07
2019-01-23T20:55:33.920Z,35.69
2019-01-23T20:57:59.818Z,35.89
2019-01-23T21:00:27.616Z,35.71
2019-01-23T21:02:56.742Z,35.61
2019-01-23T21:05:23.017Z,35.65
2019-01-23T21:07:48.925Z,35.79
2019-01-23T21:10:16.335Z,35.89
2019-01-23T21:12:45.052Z,35.92
2019-01-23T21:15:15.074Z,35.87
2019-01-23T21:17:40.974Z,35.66
2019-01-23T21:20:07.897Z,35.79
2019-01-23T21:22:34.005Z,36.17
2019-01-23T21:25:04.348Z,35.79
2019-01-23T21:27:33.301Z,35.77
2019-01-23T21:30:03.067Z,36.19
2019-01-23T21:32:28.966Z,36.25
2019-01-23T21:34:58.578Z,35.74
2019-01-23T21:37:24.469Z,36.21
2019-01-23T21:39:50.454Z,35.94
2019-01-23T21:42:19.341Z,35.98
2019-01-23T21:44:45.237Z,35.84
2019-01-23T21:47:14.188Z,35.98
2019-01-23T21:49:43.149Z,36.04
2019-01-23T21:52:09.049Z,35.90
2019-01-23T21:54:37.960Z,36.43
2019-01-23T21:57:06.933Z,35.74
2019-01-23T21:59:32.825Z,35.90
2019-01-23T22:01:58.723Z,35.76
2019-01-23T22:04:27.645Z,35.87
2019-01-23T22:06:53.537Z,35.88
2019-01-23T22:09:19.443Z,35.94
2019-01-23T22:11:45.348Z,35.84
2019-01-23T22:14:11.950Z,35.80
2019-01-23T22:16:37.911Z,35.94
2019-01-23T22:19:07.212Z,35.80
2019-01-23T22:21:35.867Z,35.76
2019-01-23T22:24:05.165Z,35.89
2019-01-23T22:26:31.058Z,35.89
2019-01-23T22:28:57.013Z,36.23
2019-01-23T22:31:25.912Z,35.86
2019-01-23T22:33:56.179Z,36.13
2019-01-23T22:36:19.507Z,36.47
2019-01-23T22:38:48.537Z,36.23
2019-01-23T22:41:17.472Z,35.81
2019-01-23T22:43:46.377Z,35.76
2019-01-23T22:46:12.283Z,36.39
2019-01-23T22:48:38.177Z,35.64
2019-01-23T22:51:04.082Z,35.78
2019-01-23T22:53:29.989Z,35.84
2019-01-23T22:55:55.891Z,35.83
2019-01-23T22:58:21.790Z,35.92
2019-01-23T23:00:52.671Z,35.87
2019-01-23T23:03:18.724Z,35.76
2019-01-23T23:05:44.629Z,35.74
2019-01-23T23:08:13.286Z,36.02
2019-01-23T23:10:39.226Z,36.08
2019-01-23T23:13:05.124Z,35.83
2019-01-23T23:15:31.029Z,36.08
2019-01-23T23:17:59.967Z,36.19
2019-01-23T23:20:25.860Z,35.74
2019-01-23T23:22:51.771Z,35.78
2019-01-23T23:25:17.664Z,35.92
2019-01-23T23:27:46.617Z,35.86
2019-01-23T23:30:14.555Z,35.93
2019-01-23T23:32:40.457Z,36.60
2019-01-23T23:35:09.411Z,36.10
2019-01-23T23:37:35.354Z,36.38
2019-01-23T23:40:01.294Z,35.89
2019-01-23T23:42:27.190Z,36.04
2019-01-23T23:44:56.138Z,35.81
2019-01-23T23:47:22.031Z,36.10
2019-01-23T23:49:54.075Z,36.09
2019-01-23T23:52:22.970Z,35.89
2019-01-23T23:54:52.367Z,35.87
2019-01-23T23:57:18.264Z,35.98
2019-01-23T23:59:47.209Z,35.93
